WetterOnline ( https://www.wetteronline.de )

Wetter aktuell Ronneby

Aktuelles Wetter: Ronneby (58m)

6-stündlich | Neueste Meldungen
Ortszeit Temperatur Wetter
Do, 20.02. 13:00 5.0° C wolkig
Do, 20.02. 7:00 0.2° C Sprühregen
Do, 20.02. 1:00 0.0° C leicht bewölkt
Mi, 19.02. 19:00 2.6° C wolkenlos
Mi, 19.02. 13:00 4.4° C bewölkt
Mi, 19.02. 7:00 4.9° C leichte Schauer
Mi, 19.02. 1:00 4.1° C bedeckt
Di, 18.02. 19:00 4.9° C bewölkt
Ortszeit Temperatur Wetter
Do, 20.02. 17:20 4° C leichter Regen
Do, 20.02. 17:00 4.0° C leichter Regen
Do, 20.02. 16:50 4° C leichter Regen
Do, 20.02. 16:20 4° C leichter Regen
Do, 20.02. 16:00 4.0° C leichter Regen
Do, 20.02. 15:50 4° C leichter Regen
Do, 20.02. 15:20 4° C leichter Regen
Do, 20.02. 15:00 4.7° C leichter Regen
Do, 20.02. 14:20 5° C bewölkt
Do, 20.02. 14:00 4.8° C bewölkt
Ortszeit Relative Feuchte Sichtweite
Do, 20.02. 13:00 86% 20 km
Do, 20.02. 7:00 100% 2.5 km
Do, 20.02. 1:00 99% 10 km
Mi, 19.02. 19:00 94% 40 km
Mi, 19.02. 13:00 91% 45 km
Mi, 19.02. 7:00 97% 8 km
Mi, 19.02. 1:00 89% 22 km
Di, 18.02. 19:00 86% 18 km
Ortszeit Relative Feuchte Sichtweite
Do, 20.02. 17:20 100% 9 km
Do, 20.02. 17:00 97% 9 km
Do, 20.02. 16:50 93% 9 km
Do, 20.02. 16:20 93% >10 km
Do, 20.02. 16:00 94% 7 km
Do, 20.02. 15:50 93% 7 km
Do, 20.02. 15:20 93% 8 km
Do, 20.02. 15:00 87% 8 km
Do, 20.02. 14:20 87% >10 km
Do, 20.02. 14:00 86% 20 km
Ortszeit Niederschlagsmenge Niederschlagsart
Do, 20.02. 13:00 0.1 l/m2 in 6 Std. Sprühregen
Do, 20.02. 7:00 0.0 l/m2 in 12 Std. Nebel
Do, 20.02. 1:00 0.0 l/m2 -
Mi, 19.02. 19:00 3 l/m2 in 12 Std. Regenschauer
Mi, 19.02. 13:00 3 l/m2 in 6 Std. Regen
Mi, 19.02. 7:00 0.8 l/m2 in 12 Std. Regenschauer
Mi, 19.02. 1:00 0.2 l/m2 in 6 Std. Regenschauer
Di, 18.02. 19:00 0.4 l/m2 in 12 Std. Regenschauer
Ortszeit Niederschlagsmenge Niederschlagsart
Do, 20.02. 17:20 keine Meldung -
Do, 20.02. 17:00 1.0 l/m2 in 1 Std. Regen
Do, 20.02. 16:50 keine Meldung -
Do, 20.02. 16:20 keine Meldung -
Do, 20.02. 16:00 0.9 l/m2 in 1 Std. Regen
Do, 20.02. 15:50 keine Meldung -
Do, 20.02. 15:20 keine Meldung -
Do, 20.02. 15:00 0.1 l/m2 in 1 Std. -
Do, 20.02. 14:20 keine Meldung -
Do, 20.02. 14:00 0.0 l/m2 in 1 Std. -
Ortszeit Stärke Spitze Richtung
km/h Bft. km/h Grad Sektor
Do, 20.02. 13:00 25 4 - 200° S
Do, 20.02. 7:00 0 0 7 - -
Do, 20.02. 1:00 4 1 11 280° W
Mi, 19.02. 19:00 7 2 14 270° W
Mi, 19.02. 13:00 22 4 32 290° W
Mi, 19.02. 7:00 18 3 32 210° SW
Mi, 19.02. 1:00 14 3 25 240° SW
Di, 18.02. 19:00 18 3 36 240° SW
Ortszeit Stärke Spitze Richtung
km/h Bft. km/h Grad Sektor
Do, 20.02. 17:20 26 4 - 190° S
Do, 20.02. 17:00 22 4 40 190° S
Do, 20.02. 16:50 24 4 - 190° S
Do, 20.02. 16:20 26 4 - 190° S
Do, 20.02. 16:00 29 5 43 200° S
Do, 20.02. 15:50 28 4 - 200° S
Do, 20.02. 15:20 22 4 - 190° S
Do, 20.02. 15:00 25 4 43 190° S
Do, 20.02. 14:20 24 4 - 190° S
Do, 20.02. 14:00 25 4 43 200° S
Ortszeit Untergrenze Bedeckung Gattung
total tief tief mittel hoch
Do, 20.02. 13:00 480 m 6/8 4/8 Sc - Cs
Do, 20.02. 7:00 210 m 8/8 8/8 St - -
Do, 20.02. 1:00 870 m 2/8 2/8 - - -
Mi, 19.02. 19:00 - 0/8 0/8 - - -
Mi, 19.02. 13:00 450 m 7/8 7/8 Sc - -
Mi, 19.02. 7:00 240 m 8/8 8/8 St - -
Mi, 19.02. 1:00 510 m 8/8 8/8 - - -
Di, 18.02. 19:00 690 m 7/8 7/8 - - -
Ortszeit Bedeckungsgrad in Achtel und Wolkenuntergrenze
Do, 20.02. 17:20 8(240m)
Do, 20.02. 17:00 7(270m) 8(360m)
Do, 20.02. 16:50 8(240m)
Do, 20.02. 16:20 5-7(300m)
Do, 20.02. 16:00 2(270m) 8(330m)
Do, 20.02. 15:50 1-2(270m) 5-7(330m)
Do, 20.02. 15:20 5-7(330m)
Do, 20.02. 15:00 2(420m) 7(480m)
Do, 20.02. 14:20 1-2(480m) 5-7(900m)
Do, 20.02. 14:00 3(480m) 7(1050m)
Ortszeit Luftdruck NN (hPa) Tendenz (hPa in 3 Std.)
Do, 20.02. 13:00 1013 - 1,5
Do, 20.02. 7:00 1014 + 0,6
Do, 20.02. 1:00 1013 + 1,8
Mi, 19.02. 19:00 1008 + 2,8
Mi, 19.02. 13:00 1003 + 2,2
Mi, 19.02. 7:00 1003 - 2,1
Mi, 19.02. 1:00 1006 - 0,7
Di, 18.02. 19:00 1007 + 0,7
Ortszeit Luftdruck NN (hPa) Tendenz (hPa in 3 Std.)
Do, 20.02. 17:20 1008 keine Meldung
Do, 20.02. 17:00 1009 - 3,1
Do, 20.02. 16:50 1009 keine Meldung
Do, 20.02. 16:20 1010 keine Meldung
Do, 20.02. 16:00 1011 - 2,8
Do, 20.02. 15:50 1010 keine Meldung
Do, 20.02. 15:20 1011 keine Meldung
Do, 20.02. 15:00 1011 - 2,8
Do, 20.02. 14:20 1011 keine Meldung
Do, 20.02. 14:00 1013 - 2,1
Ortszeit Schneehöhe (cm)
Do, 20.02. 13:00 -
Do, 20.02. 7:00 -
Do, 20.02. 1:00 -
Mi, 19.02. 19:00 -
Mi, 19.02. 13:00 -
Mi, 19.02. 7:00 -
Mi, 19.02. 1:00 -
Di, 18.02. 19:00 -
Ortszeit Schneehöhe (cm)
Do, 20.02. 17:20 -
Do, 20.02. 17:00 -
Do, 20.02. 16:50 -
Do, 20.02. 16:20 -
Do, 20.02. 16:00 -
Do, 20.02. 15:50 -
Do, 20.02. 15:20 -
Do, 20.02. 15:00 -
Do, 20.02. 14:20 -
Do, 20.02. 14:00 -
Link zu dieser Seite / Seite empfehlen

Das Wetter in ...